createdAt,value
2023-04-01T00:01:27.371Z,8.32
2023-04-01T00:04:30.102Z,5.77
2023-04-01T00:07:34.125Z,16.23
2023-04-01T00:10:36.819Z,16.67
2023-04-01T00:13:39.702Z,8.18
2023-04-01T00:16:42.474Z,10.13
2023-04-01T00:19:45.160Z,7.43
2023-04-01T00:22:47.713Z,6.13
2023-04-01T00:25:50.629Z,6.88
2023-04-01T00:28:53.442Z,5.07
2023-04-01T00:31:57.457Z,5.47
2023-04-01T00:35:02.634Z,5.40
2023-04-01T00:38:05.548Z,5.27
2023-04-01T00:41:08.248Z,7.68
2023-04-01T00:44:23.259Z,6.95
2023-04-01T00:47:27.767Z,4.72
2023-04-01T00:50:32.004Z,5.43
2023-04-01T00:53:37.733Z,4.83
2023-04-01T00:56:44.483Z,7.30
2023-04-01T00:59:50.794Z,5.88
2023-04-01T01:02:53.830Z,5.38
2023-04-01T01:06:10.745Z,5.20
2023-04-01T01:09:58.058Z,5.50
2023-04-01T01:13:32.482Z,6.20
2023-04-01T01:16:43.676Z,6.35
2023-04-01T01:20:25.279Z,4.88
2023-04-01T01:23:59.982Z,5.47
2023-04-01T01:27:14.911Z,7.07
2023-04-01T01:30:48.784Z,5.93
2023-04-01T01:34:19.296Z,6.95
2023-04-01T01:37:24.878Z,5.70
2023-04-01T01:40:29.651Z,5.43
2023-04-01T01:43:43.972Z,5.87
2023-04-01T01:46:51.030Z,5.47
2023-04-01T01:49:54.436Z,6.82
2023-04-01T01:53:09.126Z,8.07
2023-04-01T01:56:16.848Z,6.43
2023-04-01T01:59:22.045Z,7.33
2023-04-01T02:02:25.611Z,8.68
2023-04-01T02:05:31.921Z,6.82
2023-04-01T02:09:11.838Z,7.38
2023-04-01T02:12:17.927Z,7.40
2023-04-01T02:15:21.637Z,7.00
2023-04-01T02:18:25.651Z,7.22
2023-04-01T02:21:32.048Z,10.68
2023-04-01T02:24:36.690Z,10.50
2023-04-01T02:27:40.285Z,6.17
2023-04-01T02:30:44.239Z,8.10
2023-04-01T02:33:47.928Z,8.48
2023-04-01T02:36:51.707Z,7.78
2023-04-01T02:39:54.391Z,7.05
2023-04-01T02:42:56.996Z,7.10
2023-04-01T02:45:59.604Z,5.97
2023-04-01T02:49:02.137Z,8.13
2023-04-01T02:52:05.864Z,7.75
2023-04-01T02:55:08.980Z,9.40
2023-04-01T02:58:11.815Z,10.13
2023-04-01T03:01:15.164Z,9.43
2023-04-01T03:04:17.861Z,7.80
2023-04-01T03:07:20.673Z,7.70
2023-04-01T03:10:25.520Z,7.93
2023-04-01T03:13:28.315Z,8.77
2023-04-01T03:16:31.083Z,10.50
2023-04-01T03:19:33.729Z,7.60
2023-04-01T03:22:43.059Z,7.57
2023-04-01T03:25:46.222Z,7.63
2023-04-01T03:28:48.953Z,6.23
2023-04-01T03:31:51.695Z,8.87
2023-04-01T03:34:54.479Z,6.00
2023-04-01T03:37:57.223Z,8.60
2023-04-01T03:41:00.286Z,9.15
2023-04-01T03:44:03.268Z,9.60
2023-04-01T03:47:05.931Z,8.73
2023-04-01T03:50:09.645Z,8.23
2023-04-01T03:53:12.432Z,7.63
2023-04-01T03:56:17.706Z,6.15
2023-04-01T03:59:20.354Z,9.33
2023-04-01T04:02:23.065Z,6.40
2023-04-01T04:05:29.790Z,7.20
2023-04-01T04:08:35.647Z,6.80
2023-04-01T04:11:38.212Z,6.20
2023-04-01T04:14:41.206Z,6.17
2023-04-01T04:17:45.077Z,9.47
2023-04-01T04:20:49.675Z,6.95
2023-04-01T04:23:54.962Z,6.38
2023-04-01T04:26:57.638Z,6.40
2023-04-01T04:30:00.377Z,6.57
2023-04-01T04:33:03.093Z,8.93
2023-04-01T04:36:06.257Z,9.02
2023-04-01T04:39:08.987Z,6.68
2023-04-01T04:42:14.305Z,7.07
2023-04-01T04:45:17.053Z,8.40
2023-04-01T04:48:28.575Z,11.03
2023-04-01T04:51:31.185Z,6.10
2023-04-01T04:54:33.875Z,8.27
2023-04-01T04:57:38.336Z,9.82
2023-04-01T05:00:41.182Z,9.10
2023-04-01T05:03:48.053Z,8.80
2023-04-01T05:06:50.864Z,8.55
2023-04-01T05:09:53.949Z,9.60
2023-04-01T05:12:56.561Z,9.95
2023-04-01T05:15:59.888Z,11.73
2023-04-01T05:19:02.423Z,8.73
2023-04-01T05:22:06.189Z,9.90
2023-04-01T05:25:09.247Z,9.23
2023-04-01T05:28:13.615Z,8.15
2023-04-01T05:31:18.184Z,8.80
2023-04-01T05:34:25.549Z,7.47
2023-04-01T05:37:28.211Z,9.35
2023-04-01T05:40:34.186Z,10.85
2023-04-01T05:43:39.226Z,8.23
2023-04-01T05:47:10.495Z,7.67
2023-04-01T05:50:13.882Z,7.90
2023-04-01T05:53:19.470Z,8.15
2023-04-01T05:56:22.769Z,7.32
2023-04-01T05:59:27.402Z,8.50
2023-04-01T06:02:30.175Z,7.80
2023-04-01T06:05:42.358Z,7.97
2023-04-01T06:08:44.926Z,9.68
2023-04-01T06:12:05.645Z,7.63
2023-04-01T06:15:33.780Z,8.60
2023-04-01T06:18:54.419Z,8.10
2023-04-01T06:22:14.741Z,7.97
2023-04-01T06:26:03.623Z,7.75
2023-04-01T06:29:17.861Z,8.20
2023-04-01T06:32:44.397Z,8.88
2023-04-01T06:35:54.412Z,6.77
2023-04-01T06:39:27.256Z,6.87
2023-04-01T06:42:44.109Z,9.05
2023-04-01T06:46:21.182Z,6.95
2023-04-01T06:50:04.019Z,7.50
2023-04-01T06:54:06.503Z,6.53
2023-04-01T06:57:56.509Z,6.87
2023-04-01T07:01:02.180Z,5.43
2023-04-01T07:04:30.807Z,5.40
2023-04-01T07:07:33.488Z,5.82
2023-04-01T07:10:59.598Z,6.23
2023-04-01T07:14:33.574Z,4.70
2023-04-01T07:17:46.735Z,5.15
2023-04-01T07:20:50.067Z,5.47
2023-04-01T07:23:54.359Z,6.55
2023-04-01T07:27:21.386Z,4.83
2023-04-01T07:30:26.020Z,5.83
2023-04-01T07:33:39.123Z,4.82
2023-04-01T07:36:41.737Z,4.90
2023-04-01T07:39:52.808Z,5.75
2023-04-01T07:43:18.951Z,6.10
2023-04-01T07:46:52.614Z,4.23
2023-04-01T07:50:28.909Z,5.35
2023-04-01T07:53:44.972Z,5.22
2023-04-01T07:57:00.207Z,4.97
2023-04-01T08:00:43.870Z,4.90
2023-04-01T08:04:06.375Z,8.47
2023-04-01T08:07:19.482Z,5.55
2023-04-01T08:11:17.718Z,5.20
2023-04-01T08:14:57.405Z,6.43
2023-04-01T08:18:29.086Z,4.17
2023-04-01T08:21:45.114Z,6.53
2023-04-01T08:24:49.699Z,3.53
2023-04-01T08:28:23.626Z,8.25
2023-04-01T08:31:35.888Z,6.60
2023-04-01T08:34:45.092Z,2.90
2023-04-01T08:41:40.068Z,5.75
2023-04-01T08:45:14.630Z,4.28
2023-04-01T08:48:30.715Z,5.40
2023-04-01T08:52:11.853Z,3.90
2023-04-01T08:55:55.800Z,8.53
2023-04-01T08:59:14.441Z,3.63
2023-04-01T09:02:35.463Z,3.13
2023-04-01T09:06:02.262Z,3.95
2023-04-01T09:09:32.279Z,3.97
2023-04-01T09:12:56.816Z,4.53
2023-04-01T09:16:22.930Z,3.47
2023-04-01T09:19:26.247Z,3.58
2023-04-01T09:22:37.119Z,4.22
2023-04-01T09:26:08.485Z,4.20
2023-04-01T09:29:36.690Z,5.87
2023-04-01T09:32:51.676Z,3.08
2023-04-01T09:36:15.731Z,6.22
2023-04-01T09:39:37.531Z,4.93
2023-04-01T09:43:01.912Z,6.30
2023-04-01T09:46:22.175Z,3.73
2023-04-01T09:49:38.052Z,4.35
2023-04-01T09:52:41.577Z,3.85
2023-04-01T09:55:59.253Z,4.05
2023-04-01T09:59:40.687Z,3.57
2023-04-01T10:03:04.420Z,3.93
2023-04-01T10:06:22.808Z,3.50
2023-04-01T10:09:50.980Z,4.03
2023-04-01T10:13:05.504Z,6.18
2023-04-01T10:16:26.852Z,3.77
2023-04-01T10:19:42.886Z,5.67
2023-04-01T10:23:00.652Z,4.22
2023-04-01T10:26:26.627Z,5.22
2023-04-01T10:30:07.910Z,4.00
2023-04-01T10:33:35.966Z,3.07
2023-04-01T10:36:52.300Z,3.50
2023-04-01T10:40:09.249Z,4.93
2023-04-01T10:43:39.602Z,4.75
2023-04-01T10:46:54.139Z,4.40
2023-04-01T10:50:06.479Z,3.60
2023-04-01T10:53:18.271Z,4.20
2023-04-01T10:56:59.679Z,3.72
2023-04-01T11:00:30.969Z,4.68
2023-04-01T11:04:17.444Z,3.00
2023-04-01T11:08:26.716Z,4.37
2023-04-01T11:11:52.584Z,3.90
2023-04-01T11:15:22.130Z,2.70
2023-04-01T11:18:49.405Z,4.50
2023-04-01T11:22:16.305Z,6.43
2023-04-01T11:26:00.965Z,4.13
2023-04-01T11:29:24.800Z,4.00
2023-04-01T11:32:54.995Z,2.33
2023-04-01T11:36:03.991Z,3.17
2023-04-01T11:39:30.696Z,3.70
2023-04-01T11:42:58.335Z,3.03
2023-04-01T11:46:31.147Z,4.07
2023-04-01T11:50:15.547Z,3.95
2023-04-01T11:53:36.348Z,3.83
2023-04-01T11:56:57.688Z,4.85
2023-04-01T12:00:03.569Z,4.47
2023-04-01T12:03:27.820Z,3.07
2023-04-01T12:06:36.736Z,2.78
2023-04-01T12:10:04.836Z,4.05
2023-04-01T12:13:10.024Z,16.88
2023-04-01T12:16:37.659Z,5.40
2023-04-01T12:20:13.300Z,4.27
2023-04-01T12:23:55.932Z,2.92
2023-04-01T12:27:20.598Z,2.95
2023-04-01T12:30:49.402Z,5.65
2023-04-01T12:34:11.823Z,3.07
2023-04-01T12:37:30.543Z,3.50
2023-04-01T12:41:04.096Z,2.40
2023-04-01T12:44:54.143Z,3.47
2023-04-01T12:48:15.695Z,2.92
2023-04-01T12:51:35.145Z,3.27
2023-04-01T12:54:37.706Z,3.47
2023-04-01T12:57:53.269Z,3.10
2023-04-01T13:01:42.320Z,3.72
2023-04-01T13:05:13.732Z,4.88
2023-04-01T13:08:24.932Z,3.47
2023-04-01T13:11:38.942Z,4.10
2023-04-01T13:14:59.123Z,3.45
2023-04-01T13:18:37.605Z,4.15
2023-04-01T13:22:00.871Z,5.40
2023-04-01T13:25:11.953Z,3.23
2023-04-01T13:28:23.128Z,2.73
2023-04-01T13:31:47.363Z,2.72
2023-04-01T13:35:07.839Z,2.88
2023-04-01T13:38:16.551Z,3.75
2023-04-01T13:41:56.573Z,2.97
2023-04-01T13:45:04.948Z,2.50
2023-04-01T13:48:32.154Z,3.55
2023-04-01T13:51:41.961Z,2.20
2023-04-01T13:54:47.527Z,2.20
2023-04-01T13:58:27.387Z,3.77
2023-04-01T14:01:50.786Z,3.53
2023-04-01T14:05:02.445Z,3.67
2023-04-01T14:08:26.438Z,3.30
2023-04-01T14:11:34.743Z,4.07
2023-04-01T14:15:01.856Z,3.57
2023-04-01T14:18:13.346Z,2.93
2023-04-01T14:21:30.489Z,4.00
2023-04-01T14:24:52.185Z,4.82
2023-04-01T14:28:00.551Z,4.68
2023-04-01T14:31:31.593Z,5.23
2023-04-01T14:34:49.324Z,5.93
2023-04-01T14:38:11.664Z,5.20
2023-04-01T14:41:36.138Z,3.97
2023-04-01T14:45:03.988Z,3.20
2023-04-01T14:48:37.520Z,3.23
2023-04-01T14:51:43.263Z,5.33
2023-04-01T14:54:47.761Z,3.17
2023-04-01T14:58:20.816Z,5.28
2023-04-01T15:01:49.589Z,4.28
2023-04-01T15:05:22.773Z,3.93
2023-04-01T15:08:44.685Z,3.30
2023-04-01T15:12:08.592Z,3.38
2023-04-01T15:15:17.255Z,3.88
2023-04-01T15:18:40.966Z,4.13
2023-04-01T15:22:21.941Z,4.47
2023-04-01T15:25:42.886Z,4.23
2023-04-01T15:29:00.133Z,3.25
2023-04-01T15:32:16.248Z,4.20
2023-04-01T15:35:37.455Z,4.45
2023-04-01T15:39:00.278Z,7.13
2023-04-01T15:42:43.341Z,6.20
2023-04-01T15:46:20.270Z,4.25
2023-04-01T15:49:38.835Z,3.97
2023-04-01T15:52:56.423Z,3.30
2023-04-01T15:56:17.400Z,5.83
2023-04-01T15:59:22.670Z,4.37
2023-04-01T16:02:32.164Z,6.00
2023-04-01T16:05:56.769Z,5.93
2023-04-01T16:09:12.351Z,4.10
2023-04-01T16:12:24.876Z,4.17
2023-04-01T16:15:40.342Z,4.83
2023-04-01T16:18:49.923Z,4.70
2023-04-01T16:22:32.158Z,4.32
2023-04-01T16:25:38.339Z,5.05
2023-04-01T16:28:56.637Z,4.50
2023-04-01T16:32:41.500Z,6.53
2023-04-01T16:36:24.362Z,5.55
2023-04-01T16:39:51.844Z,7.10
2023-04-01T16:43:06.940Z,7.72
2023-04-01T16:46:38.349Z,10.13
2023-04-01T16:49:49.145Z,20.60
2023-04-01T16:53:16.811Z,13.85
2023-04-01T16:56:28.819Z,8.98
2023-04-01T17:00:14.744Z,26.00
2023-04-01T17:03:39.452Z,16.87
2023-04-01T17:06:48.357Z,10.23
2023-04-01T17:09:59.021Z,9.48
2023-04-01T17:13:29.686Z,11.20
2023-04-01T17:16:58.688Z,12.25
2023-04-01T17:20:43.578Z,16.60
2023-04-01T17:23:53.416Z,16.17
2023-04-01T17:27:14.648Z,21.88
2023-04-01T17:30:20.037Z,15.13
2023-04-01T17:33:46.046Z,14.15
2023-04-01T17:37:03.753Z,9.27
2023-04-01T17:40:09.741Z,7.77
2023-04-01T17:43:37.223Z,5.03
2023-04-01T17:47:12.416Z,6.85
2023-04-01T17:50:15.276Z,6.00
2023-04-01T17:54:01.546Z,6.37
2023-04-01T17:57:16.546Z,6.70
2023-04-01T18:00:27.263Z,5.90
2023-04-01T18:04:06.683Z,7.43
2023-04-01T18:07:28.110Z,7.25
2023-04-01T18:10:43.324Z,6.10
2023-04-01T18:14:23.852Z,4.63
2023-04-01T18:17:54.376Z,5.78
2023-04-01T18:21:26.641Z,5.85
2023-04-01T18:24:30.722Z,5.43
2023-04-01T18:27:39.583Z,4.43
2023-04-01T18:30:43.126Z,4.60
2023-04-01T18:34:07.489Z,6.25
2023-04-01T18:37:31.790Z,9.07
2023-04-01T18:40:42.977Z,6.57
2023-04-01T18:44:19.695Z,7.60
2023-04-01T18:47:44.028Z,12.63
2023-04-01T18:51:11.648Z,8.70
2023-04-01T18:54:34.184Z,7.68
2023-04-01T18:57:55.251Z,20.17
2023-04-01T19:01:06.709Z,25.83
2023-04-01T19:04:35.008Z,12.17
2023-04-01T19:07:37.814Z,11.02
2023-04-01T19:11:10.256Z,8.30
2023-04-01T19:14:21.267Z,8.45
2023-04-01T19:17:55.635Z,6.93
2023-04-01T19:21:08.095Z,5.67
2023-04-01T19:24:20.860Z,5.25
2023-04-01T19:27:37.628Z,4.57
2023-04-01T19:31:03.013Z,4.95
2023-04-01T19:34:27.294Z,5.60
2023-04-01T19:37:33.604Z,5.57
2023-04-01T19:40:42.563Z,6.20
2023-04-01T19:43:49.846Z,5.53
2023-04-01T19:46:59.582Z,4.07
2023-04-01T19:50:26.711Z,6.20
2023-04-01T19:53:36.975Z,4.03
2023-04-01T19:56:59.910Z,5.13
2023-04-01T20:00:18.548Z,4.78
2023-04-01T20:03:36.842Z,3.08
2023-04-01T20:06:50.754Z,4.43
2023-04-01T20:10:12.129Z,6.67
2023-04-01T20:13:41.100Z,3.97
2023-04-01T20:16:51.819Z,5.15
2023-04-01T20:20:09.988Z,5.57
2023-04-01T20:23:25.442Z,4.53
2023-04-01T20:26:40.872Z,4.10
2023-04-01T20:30:18.508Z,3.85
2023-04-01T20:33:28.115Z,3.88
2023-04-01T20:36:53.515Z,5.00
2023-04-01T20:40:14.851Z,4.43
2023-04-01T20:43:51.500Z,4.43
2023-04-01T20:46:57.182Z,6.45
2023-04-01T20:50:27.625Z,3.53
2023-04-01T20:53:43.023Z,3.55
2023-04-01T20:57:19.901Z,4.13
2023-04-01T21:00:54.603Z,3.77
2023-04-01T21:04:30.616Z,4.18
2023-04-01T21:07:53.433Z,5.25
2023-04-01T21:11:13.857Z,4.22
2023-04-01T21:14:44.122Z,4.77
2023-04-01T21:17:52.866Z,7.97
2023-04-01T21:20:58.348Z,8.55
2023-04-01T21:24:12.986Z,5.63
2023-04-01T21:27:37.948Z,4.30
2023-04-01T21:31:18.773Z,4.27
2023-04-01T21:34:45.190Z,4.33
2023-04-01T21:37:59.663Z,4.57
2023-04-01T21:41:43.585Z,4.20
2023-04-01T21:45:04.666Z,3.80
2023-04-01T21:48:42.583Z,3.27
2023-04-01T21:52:04.610Z,2.53
2023-04-01T21:55:33.419Z,1.90
2023-04-01T21:59:05.633Z,2.78
2023-04-01T22:02:22.769Z,2.30
2023-04-01T22:05:28.398Z,2.30
2023-04-01T22:09:04.285Z,3.40
2023-04-01T22:12:16.083Z,2.58
2023-04-01T22:15:47.532Z,2.30
2023-04-01T22:19:14.302Z,2.95
2023-04-01T22:22:23.305Z,2.00
2023-04-01T22:25:41.601Z,4.27
2023-04-01T22:29:00.915Z,1.80
2023-04-01T22:32:30.026Z,2.55
2023-04-01T22:35:53.998Z,1.90
2023-04-01T22:39:04.176Z,2.10
2023-04-01T22:42:28.783Z,2.23
2023-04-01T22:45:58.926Z,1.85
2023-04-01T22:49:10.831Z,1.90
2023-04-01T22:52:34.781Z,1.90
2023-04-01T22:55:53.701Z,2.17
2023-04-01T22:59:18.668Z,2.57
2023-04-01T23:02:31.170Z,1.98
2023-04-01T23:05:36.529Z,2.00
2023-04-01T23:09:08.994Z,2.22
2023-04-01T23:12:18.006Z,2.07
2023-04-01T23:15:24.095Z,3.10
2023-04-01T23:18:37.584Z,1.90
2023-04-01T23:21:51.690Z,2.00
2023-04-01T23:25:34.882Z,2.00
2023-04-01T23:29:00.693Z,1.93
2023-04-01T23:32:05.133Z,1.93
2023-04-01T23:35:17.860Z,1.67
2023-04-01T23:38:22.694Z,2.00
2023-04-01T23:41:33.745Z,2.00
2023-04-01T23:44:37.562Z,1.97
2023-04-01T23:47:42.084Z,1.80
2023-04-01T23:50:45.465Z,2.05
2023-04-01T23:53:57.625Z,2.45
2023-04-01T23:57:11.653Z,2.00
